Time;durP1;ratioP1;P1;durP2;ratioP2;P2;SDS_P1;SDS_P2;PMS_P1;PMS_P2;Temp;Humidity;BMP_temperature;BMP_pressure;BME280_temperature;BME280_humidity;BME280_pressure;Samples;Min_cycle;Max_cycle;Signal;HPM_P1;HPM_P2
2021/11/20 00:01:17;;;;;;;22.30;3.05;;;27.20;28.70;;;;;;5072179;28;20093;-64
2021/11/20 00:03:45;;;;;;;18.85;2.90;;;27.10;29.30;;;;;;5071611;28;20457;-65
2021/11/20 00:06:16;;;;;;;20.60;3.00;;;27.00;29.40;;;;;;5090485;28;20100;-63
2021/11/20 00:08:42;;;;;;;29.45;3.10;;;26.90;29.60;;;;;;5071674;28;20576;-64
2021/11/20 00:11:12;;;;;;;26.08;3.50;;;26.80;30.50;;;;;;5071888;28;20115;-66
2021/11/20 00:13:42;;;;;;;22.80;2.78;;;26.70;31.60;;;;;;5072149;28;20229;-65
2021/11/20 00:16:10;;;;;;;23.90;3.38;;;26.60;31.70;;;;;;5072144;28;20068;-64
2021/11/20 00:18:37;;;;;;;19.63;3.55;;;26.40;31.90;;;;;;5072868;28;20075;-64
2021/11/20 00:21:18;;;;;;;48.30;4.22;;;26.20;31.90;;;;;;5090000;28;20519;-66
2021/11/20 00:23:53;;;;;;;22.48;3.83;;;26.10;33.10;;;;;;5078815;28;20080;-62
2021/11/20 00:26:22;;;;;;;29.60;4.20;;;26.00;33.30;;;;;;5071029;28;20482;-61
2021/11/20 00:31:30;;;;;;;30.80;4.35;;;25.70;33.70;;;;;;5089791;28;20076;-64
2021/11/20 00:33:57;;;;;;;33.78;5.05;;;25.50;33.90;;;;;;5071633;28;20123;-64
2021/11/20 00:36:24;;;;;;;39.65;5.75;;;25.30;34.20;;;;;;5089754;28;20162;-62
2021/11/20 00:38:51;;;;;;;33.47;4.93;;;25.20;34.40;;;;;;5071626;28;20160;-61
2021/11/20 00:41:23;;;;;;;28.88;5.45;;;25.10;34.20;;;;;;5071666;28;20069;-65
2021/11/20 00:43:51;;;;;;;21.75;5.20;;;25.00;34.50;;;;;;5075230;28;20081;-64
2021/11/20 00:46:20;;;;;;;33.03;5.30;;;24.80;34.80;;;;;;5094429;28;20152;-65
2021/11/20 00:48:47;;;;;;;31.50;4.70;;;24.70;35.10;;;;;;5093520;28;20080;-64
2021/11/20 00:51:16;;;;;;;43.08;6.00;;;24.50;35.90;;;;;;5075362;28;20606;-64
2021/11/20 00:53:44;;;;;;;43.58;5.55;;;24.40;36.10;;;;;;5075270;28;20101;-66
2021/11/20 00:56:12;;;;;;;50.95;5.82;;;24.30;36.70;;;;;;5075249;28;20121;-65
2021/11/20 00:58:39;;;;;;;51.45;6.35;;;24.20;37.00;;;;;;5075317;28;20165;-64
2021/11/20 01:01:08;;;;;;;36.90;5.43;;;24.10;37.40;;;;;;5074164;28;20065;-65
2021/11/20 01:03:35;;;;;;;33.92;4.78;;;24.10;37.90;;;;;;5097731;28;20080;-64
2021/11/20 01:06:02;;;;;;;35.97;5.57;;;23.90;38.10;;;;;;5075483;28;20123;-63
2021/11/20 01:08:35;;;;;;;45.08;5.80;;;23.80;38.60;;;;;;5058950;28;20076;-65
2021/11/20 01:11:12;;;;;;;35.40;6.15;;;23.70;39.00;;;;;;5093323;28;20134;-63
2021/11/20 01:13:38;;;;;;;42.85;6.38;;;23.60;39.30;;;;;;5075415;28;20088;-65
2021/11/20 01:16:08;;;;;;;34.05;5.55;;;23.50;40.00;;;;;;5075857;28;20071;-66
2021/11/20 01:18:35;;;;;;;44.35;6.80;;;23.40;39.50;;;;;;5093418;28;20130;-66
2021/11/20 01:21:02;;;;;;;53.70;7.18;;;23.30;39.20;;;;;;5074958;28;20077;-65
2021/11/20 01:23:31;;;;;;;41.42;6.55;;;23.30;39.90;;;;;;5058166;28;20075;-65
2021/11/20 01:25:59;;;;;;;63.30;6.95;;;23.10;40.30;;;;;;5074937;28;20166;-63
2021/11/20 01:28:28;;;;;;;58.55;7.63;;;23.10;40.80;;;;;;5092905;28;20635;-65
2021/11/20 01:30:55;;;;;;;51.42;8.27;;;23.00;41.40;;;;;;5074864;28;20108;-64
2021/11/20 01:33:23;;;;;;;44.45;7.65;;;22.90;42.10;;;;;;5074513;28;20085;-65
2021/11/20 01:35:49;;;;;;;53.53;9.20;;;22.90;42.20;;;;;;5074568;28;20100;-63
2021/11/20 01:38:16;;;;;;;71.68;9.77;;;22.80;42.50;;;;;;5092790;28;20100;-64
2021/11/20 01:40:44;;;;;;;61.40;10.20;;;22.70;42.80;;;;;;5074549;28;20072;-64
2021/11/20 01:43:11;;;;;;;51.45;9.43;;;22.60;43.00;;;;;;5074541;28;20119;-63
2021/11/20 01:45:49;;;;;;;57.85;9.55;;;22.50;43.00;;;;;;5074460;28;20076;-63
2021/11/20 01:48:34;;;;;;;63.20;10.10;;;22.50;43.80;;;;;;5074344;28;20448;-64
2021/11/20 01:51:17;;;;;;;54.47;10.95;;;22.40;44.10;;;;;;5092346;28;20172;-64
2021/11/20 01:54:00;;;;;;;49.85;10.32;;;22.30;44.20;;;;;;5073507;28;20094;-66
2021/11/20 01:56:42;;;;;;;60.97;11.32;;;22.30;44.30;;;;;;5057871;28;20536;-64
2021/11/20 01:59:18;;;;;;;66.03;12.15;;;22.20;44.40;;;;;;5074416;28;20077;-65
2021/11/20 02:01:53;;;;;;;64.38;12.98;;;22.10;45.00;;;;;;5073719;28;20088;-64
2021/11/20 02:04:25;;;;;;;68.85;13.63;;;22.10;44.30;;;;;;5090054;28;20106;-66
2021/11/20 02:07:16;;;;;;;66.72;13.98;;;22.00;44.70;;;;;;5100044;28;20125;-64
2021/11/20 02:10:10;;;;;;;69.57;13.50;;;22.00;44.90;;;;;;5092357;28;20073;-63
2021/11/20 02:12:49;;;;;;;72.00;14.48;;;22.00;45.20;;;;;;5074010;28;20097;-64
2021/11/20 02:15:43;;;;;;;75.85;13.93;;;21.90;45.20;;;;;;5074664;28;20084;-64
2021/11/20 02:18:11;;;;;;;72.22;15.60;;;21.80;45.70;;;;;;5073883;28;20108;-63
2021/11/20 02:20:52;;;;;;;99.45;16.20;;;21.70;45.70;;;;;;5073939;28;20611;-64
2021/11/20 02:23:18;;;;;;;85.72;15.38;;;21.70;45.90;;;;;;5096157;28;20087;-64
2021/11/20 02:25:44;;;;;;;82.75;16.33;;;21.70;46.00;;;;;;5081801;28;20160;-66
2021/11/20 02:28:11;;;;;;;81.97;15.93;;;21.60;46.20;;;;;;5072953;28;20573;-65
2021/11/20 02:30:48;;;;;;;96.63;18.20;;;21.60;46.50;;;;;;5072250;28;20080;-65
2021/11/20 02:33:14;;;;;;;84.47;18.23;;;21.50;46.60;;;;;;5071870;28;20092;-65
2021/11/20 02:35:42;;;;;;;;;;;21.50;46.90;;;;;;5073821;28;20114;-65
2021/11/20 02:38:16;;;;;;;74.93;18.08;;;21.40;47.70;;;;;;5073650;28;20306;-63
2021/11/20 02:40:44;;;;;;;80.15;20.60;;;21.40;47.50;;;;;;5073154;28;20079;-63
2021/11/20 02:43:12;;;;;;;85.07;21.55;;;21.30;47.00;;;;;;5073275;28;20073;-64
2021/11/20 02:45:47;;;;;;;85.28;21.80;;;21.30;47.50;;;;;;5073799;28;20073;-61
2021/11/20 02:48:13;;;;;;;91.15;24.48;;;21.30;47.10;;;;;;5091511;28;20534;-67
2021/11/20 02:50:44;;;;;;;100.50;24.23;;;21.30;46.70;;;;;;5056493;28;20578;-65
2021/11/20 02:53:16;;;;;;;95.95;26.08;;;21.30;47.30;;;;;;5057368;28;20096;-63
2021/11/20 02:55:48;;;;;;;102.82;26.30;;;21.20;47.40;;;;;;5073546;28;20434;-63
2021/11/20 02:58:17;;;;;;;93.25;24.40;;;21.20;47.80;;;;;;5074227;28;20083;-63
2021/11/20 03:00:46;;;;;;;119.20;26.60;;;21.20;47.90;;;;;;5077356;28;20091;-63
2021/11/20 03:03:12;;;;;;;106.95;24.95;;;21.10;48.10;;;;;;5072864;28;20523;-62
2021/11/20 03:05:40;;;;;;;113.20;25.75;;;21.10;48.10;;;;;;5076538;28;20076;-62
2021/11/20 03:08:07;;;;;;;128.43;25.73;;;21.10;48.60;;;;;;5077674;28;20527;-62
2021/11/20 03:10:33;;;;;;;117.10;25.48;;;21.00;48.50;;;;;;5071970;28;20072;-61
2021/11/20 03:13:00;;;;;;;95.38;24.15;;;20.90;48.40;;;;;;5057033;28;20068;-61
2021/11/20 03:15:26;;;;;;;103.07;25.83;;;20.80;48.30;;;;;;5074485;28;20072;-62
2021/11/20 03:17:53;;;;;;;108.85;25.30;;;20.80;49.10;;;;;;5070846;28;20080;-64
2021/11/20 03:20:21;;;;;;;114.50;26.30;;;20.80;48.60;;;;;;5058891;28;20089;-63
2021/11/20 03:23:01;;;;;;;90.90;24.65;;;20.70;48.90;;;;;;5072770;28;20080;-62
2021/11/20 03:25:29;;;;;;;117.65;27.33;;;20.80;49.40;;;;;;5071930;28;20077;-64
2021/11/20 03:27:55;;;;;;;107.80;25.20;;;20.70;49.30;;;;;;5092415;28;20833;-63
2021/11/20 03:30:22;;;;;;;114.18;28.92;;;20.60;48.70;;;;;;5094116;28;20061;-62
2021/11/20 03:32:49;;;;;;;130.50;30.83;;;20.60;49.00;;;;;;5074270;28;20118;-62
2021/11/20 03:35:15;;;;;;;131.60;31.45;;;20.50;50.10;;;;;;5075544;28;20080;-62
2021/11/20 03:37:43;;;;;;;102.50;31.48;;;20.50;49.00;;;;;;5074435;28;20105;-64
2021/11/20 03:40:10;;;;;;;121.80;33.25;;;20.50;49.30;;;;;;5072821;28;20117;-64
2021/11/20 03:42:37;;;;;;;124.63;30.60;;;20.50;49.20;;;;;;5076293;28;20099;-64
2021/11/20 03:45:06;;;;;;;125.88;31.48;;;20.40;49.10;;;;;;5091323;28;20513;-64
2021/11/20 03:47:33;;;;;;;108.38;31.02;;;20.40;49.30;;;;;;5075384;28;20077;-64
2021/11/20 03:50:00;;;;;;;115.70;34.38;;;20.30;49.30;;;;;;5073836;28;20178;-64
2021/11/20 03:52:27;;;;;;;135.93;35.63;;;20.30;49.30;;;;;;5075834;28;20090;-66
2021/11/20 03:54:53;;;;;;;129.90;37.20;;;20.30;49.20;;;;;;5093900;28;20089;-63
2021/11/20 03:57:20;;;;;;;162.15;39.80;;;20.20;49.40;;;;;;5074279;28;20079;-63
2021/11/20 03:59:48;;;;;;;148.95;40.63;;;20.20;49.60;;;;;;5091641;28;20065;-61
2021/11/20 04:02:15;;;;;;;127.70;38.25;;;20.20;49.30;;;;;;5093884;28;20079;-58
2021/11/20 04:04:42;;;;;;;132.93;37.53;;;20.20;49.30;;;;;;5073475;28;20137;-64
2021/11/20 04:07:08;;;;;;;118.95;36.38;;;20.20;49.10;;;;;;5059122;28;20565;-62
2021/11/20 04:09:35;;;;;;;132.07;37.15;;;20.20;49.20;;;;;;5075482;28;20083;-61
2021/11/20 04:12:01;;;;;;;121.20;34.67;;;20.10;49.30;;;;;;5093655;28;20453;-63
2021/11/20 04:14:28;;;;;;;158.20;34.08;;;20.10;49.20;;;;;;5092831;28;20136;-60
2021/11/20 04:16:55;;;;;;;136.95;34.33;;;20.00;49.80;;;;;;5094503;28;20069;-59
2021/11/20 04:19:22;;;;;;;132.85;35.17;;;20.00;50.10;;;;;;5080202;28;20084;-60
2021/11/20 04:21:49;;;;;;;128.02;34.97;;;19.90;50.30;;;;;;5082320;28;20068;-62
2021/11/20 04:24:16;;;;;;;110.28;34.38;;;19.90;50.20;;;;;;5101605;28;20079;-62
2021/11/20 04:26:43;;;;;;;102.05;33.13;;;19.80;50.10;;;;;;5082293;28;20517;-62
2021/11/20 04:29:10;;;;;;;127.85;34.78;;;19.80;50.40;;;;;;5082228;28;20099;-64
2021/11/20 04:31:36;;;;;;;127.30;34.25;;;19.80;50.90;;;;;;5080452;28;20099;-64
2021/11/20 04:34:04;;;;;;;121.35;33.58;;;19.80;51.20;;;;;;5061725;28;20081;-63
2021/11/20 04:36:30;;;;;;;112.28;31.65;;;19.80;51.20;;;;;;5076212;28;20554;-64
2021/11/20 04:38:58;;;;;;;115.25;31.70;;;19.70;51.80;;;;;;5077494;28;20153;-64
2021/11/20 04:41:24;;;;;;;118.60;32.40;;;19.70;51.70;;;;;;5095728;28;20061;-64
2021/11/20 04:43:51;;;;;;;120.72;32.22;;;19.70;51.40;;;;;;5095706;28;20167;-65
2021/11/20 04:46:21;;;;;;;121.20;32.70;;;19.60;51.60;;;;;;5096881;28;20072;-62
2021/11/20 04:48:47;;;;;;;112.78;33.55;;;19.60;52.00;;;;;;5078879;28;20094;-62
2021/11/20 04:51:14;;;;;;;98.68;32.50;;;19.60;52.10;;;;;;5079039;28;20581;-62
2021/11/20 04:53:44;;;;;;;111.85;31.30;;;19.60;52.10;;;;;;5078508;28;20119;-62
2021/11/20 04:56:14;;;;;;;118.10;33.80;;;19.60;52.10;;;;;;5078649;28;20159;-60
2021/11/20 04:58:41;;;;;;;125.18;33.63;;;19.50;52.20;;;;;;5078566;28;20519;-63
2021/11/20 05:01:09;;;;;;;135.20;34.00;;;19.50;52.70;;;;;;5078120;28;20098;-60
2021/11/20 05:03:36;;;;;;;109.85;33.35;;;19.50;52.30;;;;;;5078344;28;20531;-64
2021/11/20 05:06:03;;;;;;;127.63;33.85;;;19.40;52.60;;;;;;5078978;28;20500;-61
2021/11/20 05:08:30;;;;;;;108.95;32.15;;;19.40;53.30;;;;;;5078624;28;20077;-65
2021/11/20 05:11:24;;;;;;;120.55;34.35;;;19.30;53.40;;;;;;5078858;28;20080;-57
2021/11/20 05:13:50;;;;;;;118.93;35.35;;;19.30;53.10;;;;;;5094371;28;20091;-63
2021/11/20 05:16:17;;;;;;;;;;;19.30;53.10;;;;;;5078871;28;20065;-62
2021/11/20 05:18:44;;;;;;;122.85;36.35;;;19.30;53.40;;;;;;5097258;28;19956;-65
2021/11/20 05:21:10;;;;;;;125.35;34.83;;;19.20;53.20;;;;;;5077086;28;20551;-65
2021/11/20 05:23:37;;;;;;;101.22;31.42;;;19.20;53.30;;;;;;5085773;28;20075;-64
2021/11/20 05:26:06;;;;;;;97.82;32.53;;;19.20;53.70;;;;;;5078046;28;20081;-63
2021/11/20 05:28:32;;;;;;;107.80;33.05;;;19.10;53.10;;;;;;5076493;28;20516;-64
2021/11/20 05:31:00;;;;;;;95.20;30.67;;;19.10;53.10;;;;;;5074469;28;20080;-61
2021/11/20 05:33:34;;;;;;;95.00;31.05;;;19.10;53.10;;;;;;5058061;28;20528;-65
2021/11/20 05:36:02;;;;;;;118.32;30.75;;;19.00;53.30;;;;;;5074723;28;20115;-63
2021/11/20 05:38:29;;;;;;;114.55;32.03;;;19.00;53.70;;;;;;5058000;28;20484;-59
2021/11/20 05:40:57;;;;;;;102.80;30.48;;;19.00;53.90;;;;;;5074618;28;20100;-63
2021/11/20 05:43:23;;;;;;;97.78;30.63;;;19.00;53.80;;;;;;5074557;28;20068;-62
2021/11/20 05:45:57;;;;;;;110.53;32.03;;;19.00;54.20;;;;;;5074506;28;20137;-61
2021/11/20 05:48:23;;;;;;;109.28;32.28;;;18.90;54.50;;;;;;5074255;28;20073;-64
2021/11/20 05:50:51;;;;;;;106.15;31.88;;;18.90;54.60;;;;;;5092781;28;20088;-63
2021/11/20 05:53:22;;;;;;;114.82;31.30;;;18.90;54.40;;;;;;5074463;28;20100;-63
2021/11/20 05:55:51;;;;;;;111.93;30.05;;;18.70;54.30;;;;;;5074459;28;20717;-63
2021/11/20 05:58:21;;;;;;;125.93;32.72;;;18.80;54.50;;;;;;5074294;28;20077;-62
2021/11/20 06:00:51;;;;;;;107.55;30.90;;;18.70;55.00;;;;;;5074182;28;20083;-63
2021/11/20 06:03:19;;;;;;;116.93;33.40;;;18.70;54.80;;;;;;5092586;28;20605;-60
2021/11/20 06:05:47;;;;;;;93.57;29.95;;;18.70;54.70;;;;;;5074014;28;20163;-60
2021/11/20 06:08:15;;;;;;;102.05;29.70;;;18.70;54.90;;;;;;5073726;28;20068;-61
2021/11/20 06:10:44;;;;;;;121.95;31.65;;;18.70;55.20;;;;;;5074065;28;20073;-60
2021/11/20 06:13:11;;;;;;;104.68;30.27;;;18.60;55.30;;;;;;5073946;28;20083;-60
2021/11/20 06:15:39;;;;;;;129.15;30.92;;;18.60;55.30;;;;;;5075032;28;20080;-62
2021/11/20 06:18:06;;;;;;;105.22;32.75;;;18.60;55.10;;;;;;5073672;28;20096;-64
2021/11/20 06:20:33;;;;;;;108.28;31.40;;;18.60;55.20;;;;;;5074439;28;20126;-64
2021/11/20 06:23:00;;;;;;;116.03;33.17;;;18.50;55.60;;;;;;5075496;28;20414;-63
2021/11/20 06:25:26;;;;;;;86.18;30.48;;;18.50;55.00;;;;;;5109616;28;20087;-62
2021/11/20 06:27:53;;;;;;;93.63;32.00;;;18.50;55.10;;;;;;5073468;28;20082;-63
2021/11/20 06:30:22;;;;;;;97.57;34.30;;;18.50;55.50;;;;;;5092014;28;20071;-63
2021/11/20 06:32:49;;;;;;;105.80;31.27;;;18.40;55.80;;;;;;5073607;28;20155;-65
2021/11/20 06:35:18;;;;;;;74.40;24.73;;;18.40;54.90;;;;;;5073426;28;20107;-60
2021/11/20 06:37:47;;;;;;;81.10;22.90;;;18.40;54.50;;;;;;5073801;28;20108;-64
2021/11/20 06:40:27;;;;;;;93.13;24.13;;;18.40;54.90;;;;;;5073567;28;20077;-64
2021/11/20 06:42:55;;;;;;;76.80;20.80;;;18.40;55.20;;;;;;5072969;28;20557;-60
2021/11/20 06:45:26;;;;;;;71.25;17.88;;;18.40;55.20;;;;;;5091758;28;20423;-65
2021/11/20 06:47:53;;;;;;;68.18;17.48;;;18.40;55.20;;;;;;5073487;28;20085;-66
2021/11/20 06:50:20;;;;;;;73.72;17.23;;;18.40;55.30;;;;;;5073834;28;20095;-63
2021/11/20 06:52:49;;;;;;;69.70;16.88;;;18.30;55.50;;;;;;5091346;28;20077;-62
2021/11/20 06:55:16;;;;;;;62.63;14.85;;;18.40;55.70;;;;;;5073304;28;20100;-63
2021/11/20 07:00:28;;;;;;;54.45;12.95;;;18.20;55.50;;;;;;5096872;28;20158;-65
2021/11/20 07:03:00;;;;;;;62.33;12.10;;;18.20;55.60;;;;;;5077990;28;20079;-64
2021/11/20 07:05:30;;;;;;;51.72;11.93;;;18.20;55.60;;;;;;5074505;28;20075;-63
2021/11/20 07:07:58;;;;;;;56.95;11.98;;;18.20;55.70;;;;;;5095420;28;20080;-61
2021/11/20 07:10:25;;;;;;;59.47;10.30;;;18.20;55.70;;;;;;5076238;28;20079;-62
2021/11/20 07:12:53;;;;;;;56.88;12.02;;;18.10;55.70;;;;;;5077390;28;20441;-65
2021/11/20 07:15:21;;;;;;;59.72;11.43;;;18.10;56.10;;;;;;5095248;28;20196;-62
2021/11/20 07:17:48;;;;;;;59.75;11.02;;;18.10;56.20;;;;;;5096960;28;20429;-63
2021/11/20 07:20:15;;;;;;;66.03;11.75;;;18.10;56.40;;;;;;5071471;28;20072;-60
2021/11/20 07:22:42;;;;;;;45.05;11.20;;;18.10;56.50;;;;;;5073560;28;20093;-65
2021/11/20 07:25:09;;;;;;;60.47;11.45;;;18.10;56.70;;;;;;5058553;28;20081;-64
2021/11/20 07:27:36;;;;;;;68.55;12.85;;;18.10;56.70;;;;;;5076059;28;20178;-63
2021/11/20 07:30:07;;;;;;;58.55;14.93;;;18.00;56.60;;;;;;5074649;28;20077;-65
2021/11/20 07:32:33;;;;;;;72.68;14.88;;;17.80;57.10;;;;;;5075942;28;20089;-65
2021/11/20 07:35:00;;;;;;;68.72;16.30;;;17.80;57.90;;;;;;5075497;28;20089;-64
2021/11/20 07:37:27;;;;;;;92.53;17.45;;;17.70;58.20;;;;;;5076177;28;20700;-63
2021/11/20 07:39:53;;;;;;;;;;;17.60;58.70;;;;;;5094152;28;20447;-59
2021/11/20 07:42:20;;;;;;;77.63;20.20;;;17.60;59.20;;;;;;5075298;28;20099;-62
2021/11/20 07:44:46;;;;;;;74.50;18.33;;;17.70;59.30;;;;;;5074463;28;20080;-61
2021/11/20 07:47:13;;;;;;;70.47;18.52;;;17.60;59.20;;;;;;5078504;28;20153;-61
2021/11/20 07:49:43;;;;;;;73.20;19.58;;;17.40;59.50;;;;;;5075661;28;20099;-58
2021/11/20 07:52:11;;;;;;;80.38;21.20;;;17.50;60.00;;;;;;5093190;28;20076;-65
2021/11/20 07:54:38;;;;;;;83.15;19.58;;;17.40;60.00;;;;;;5072907;28;20190;-64
2021/11/20 07:57:07;;;;;;;69.05;18.77;;;17.40;60.30;;;;;;5075419;28;20069;-68
2021/11/20 07:59:34;;;;;;;73.80;18.63;;;17.40;60.30;;;;;;5095196;28;20069;-66
2021/11/20 08:02:00;;;;;;;70.20;17.50;;;17.40;60.50;;;;;;5074318;28;20144;-66
2021/11/20 08:04:27;;;;;;;70.25;15.25;;;17.30;60.70;;;;;;5075175;28;20106;-68
2021/11/20 08:06:53;;;;;;;;;;;17.40;61.50;;;;;;5059794;28;20629;-66
2021/11/20 08:09:19;;;;;;;52.83;16.38;;;17.40;61.50;;;;;;5077625;28;20056;-67
2021/11/20 08:11:45;;;;;;;;;;;17.30;61.70;;;;;;5076146;28;20124;-66
2021/11/20 08:14:12;;;;;;;48.13;15.40;;;17.10;61.90;;;;;;5076591;28;19980;-65
2021/11/20 08:16:39;;;;;;;76.10;15.95;;;17.10;62.30;;;;;;5094747;28;20072;-65
2021/11/20 08:19:07;;;;;;;64.65;14.57;;;17.10;62.10;;;;;;5073857;28;20475;-66
2021/11/20 08:21:34;;;;;;;52.08;14.18;;;17.10;62.00;;;;;;5076204;28;20549;-66
2021/11/20 08:24:00;;;;;;;;;;;17.00;62.30;;;;;;5097622;28;20133;-65
2021/11/20 08:26:35;;;;;;;52.30;13.15;;;17.10;62.40;;;;;;5073885;28;20450;-66
2021/11/20 08:29:11;;;;;;;70.50;14.55;;;17.00;62.50;;;;;;5094576;28;20068;-65
2021/11/20 08:31:41;;;;;;;59.57;13.43;;;17.10;62.90;;;;;;5093330;28;20087;-65
2021/11/20 08:34:08;;;;;;;55.28;13.27;;;17.10;63.00;;;;;;5072317;28;20568;-66
2021/11/20 08:36:35;;;;;;;71.97;14.73;;;17.00;63.50;;;;;;5076956;28;20101;-67
2021/11/20 08:39:01;;;;;;;;;;;17.00;63.70;;;;;;5092169;28;20073;-65
2021/11/20 08:41:28;;;;;;;68.90;13.57;;;17.00;63.10;;;;;;5058813;28;19980;-67
2021/11/20 08:43:54;;;;;;;;;;;17.10;62.90;;;;;;5076232;28;20549;-66
2021/11/20 08:46:20;;;;;;;49.58;14.25;;;17.10;62.30;;;;;;5075957;28;20419;-67
2021/11/20 08:48:47;;;;;;;55.63;13.48;;;17.10;62.40;;;;;;5075203;28;20078;-62
2021/11/20 08:51:16;;;;;;;;;;;17.00;62.30;;;;;;5075335;28;20124;-66
2021/11/20 08:53:43;;;;;;;60.85;13.90;;;17.00;62.20;;;;;;5074579;28;19977;-68
2021/11/20 08:56:10;;;;;;;62.53;16.27;;;17.00;62.40;;;;;;5073136;28;20522;-65
2021/11/20 08:58:38;;;;;;;63.15;15.25;;;17.00;62.40;;;;;;5075064;28;20103;-64
2021/11/20 09:01:22;;;;;;;64.00;15.13;;;17.00;62.00;;;;;;5093252;28;20482;-65
2021/11/20 09:04:07;;;;;;;54.70;14.00;;;16.90;62.00;;;;;;5074807;28;20072;-66
2021/11/20 09:06:47;;;;;;;57.78;14.90;;;16.90;61.70;;;;;;5079371;28;20079;-66
2021/11/20 09:09:16;;;;;;;70.25;14.57;;;16.90;60.70;;;;;;5095081;28;20198;-67
2021/11/20 09:12:00;;;;;;;58.28;14.93;;;16.90;60.30;;;;;;5079021;28;20127;-66
2021/11/20 09:14:33;;;;;;;61.67;15.65;;;16.90;60.50;;;;;;5078151;28;20123;-65
2021/11/20 09:17:00;;;;;;;60.90;14.90;;;16.90;59.90;;;;;;5079341;28;20092;-67
2021/11/20 09:19:29;;;;;;;56.67;14.45;;;16.90;60.20;;;;;;5041387;28;20095;-67
2021/11/20 09:21:57;;;;;;;54.45;14.77;;;16.80;59.30;;;;;;5078745;28;20095;-67
2021/11/20 09:24:26;;;;;;;58.45;14.65;;;16.70;59.00;;;;;;5097729;28;20080;-66
2021/11/20 09:26:53;;;;;;;55.50;15.23;;;16.70;58.90;;;;;;5078509;28;20079;-67
2021/11/20 09:29:19;;;;;;;;;;;16.70;58.90;;;;;;5076929;28;20088;-67
2021/11/20 09:31:47;;;;;;;52.57;13.93;;;16.70;59.10;;;;;;5079576;28;19956;-68
2021/11/20 09:34:17;;;;;;;50.58;14.50;;;16.70;59.40;;;;;;5105486;22;20117;-66
2021/11/20 09:36:46;;;;;;;46.92;14.50;;;16.60;59.60;;;;;;5052867;28;20073;-67
2021/11/20 09:39:14;;;;;;;62.58;14.20;;;16.50;60.00;;;;;;5071101;28;20142;-66
2021/11/20 09:42:06;;;;;;;41.22;14.55;;;16.50;59.90;;;;;;5054171;28;20159;-64
2021/11/20 09:44:37;;;;;;;48.08;14.00;;;16.60;59.90;;;;;;5072038;28;20077;-66
2021/11/20 09:47:28;;;;;;;58.53;15.02;;;16.50;59.60;;;;;;5054520;28;20092;-66
2021/11/20 09:50:14;;;;;;;47.10;14.00;;;16.50;59.60;;;;;;5072805;28;20093;-67
2021/11/20 09:52:41;;;;;;;53.90;15.18;;;16.50;59.60;;;;;;5071850;28;20134;-67
2021/11/20 09:55:12;;;;;;;61.08;15.95;;;16.30;59.80;;;;;;5054086;28;20093;-64
2021/11/20 09:57:45;;;;;;;59.58;15.82;;;16.30;60.30;;;;;;5053983;28;20114;-65
2021/11/20 10:00:41;;;;;;;65.88;14.55;;;16.30;60.20;;;;;;5054125;28;20073;-67
2021/11/20 10:03:13;;;;;;;55.38;15.30;;;16.30;60.00;;;;;;5041830;28;20128;-65
2021/11/20 10:05:42;;;;;;;64.00;16.23;;;16.30;60.40;;;;;;5055162;28;20073;-67
2021/11/20 10:08:25;;;;;;;66.10;15.48;;;16.20;60.50;;;;;;5053845;28;20122;-66
2021/11/20 10:11:08;;;;;;;60.28;16.10;;;16.10;60.60;;;;;;5052731;28;20126;-66
2021/11/20 10:14:12;;;;;;;68.20;16.85;;;16.10;61.00;;;;;;5053601;28;20101;-68
2021/11/20 10:17:00;;;;;;;60.75;16.95;;;16.20;60.50;;;;;;5041298;28;20154;-64
2021/11/20 10:19:40;;;;;;;74.88;17.02;;;16.20;60.40;;;;;;5054723;28;20145;-67
2021/11/20 10:22:35;;;;;;;60.67;17.13;;;16.10;60.90;;;;;;5040957;28;20064;-65
2021/11/20 10:25:26;;;;;;;67.38;18.38;;;16.10;61.00;;;;;;5071448;28;20073;-67
2021/11/20 10:28:05;;;;;;;73.50;17.15;;;16.00;61.30;;;;;;5054219;28;20073;-68
2021/11/20 10:31:00;;;;;;;71.63;18.92;;;16.00;61.60;;;;;;5052366;28;20068;-64
2021/11/20 10:33:54;;;;;;;72.13;19.42;;;15.90;61.30;;;;;;5053659;28;20775;-66
2021/11/20 10:36:34;;;;;;;75.18;20.27;;;15.90;61.80;;;;;;5054276;28;20073;-65
2021/11/20 10:39:10;;;;;;;83.82;19.98;;;15.90;62.10;;;;;;5052802;28;20093;-64
2021/11/20 10:42:13;;;;;;;70.93;21.33;;;16.00;62.40;;;;;;5071988;28;20159;-66
2021/11/20 10:44:39;;;;;;;77.97;20.55;;;15.80;62.30;;;;;;5053018;28;20096;-64
2021/11/20 10:47:13;;;;;;;76.80;19.48;;;15.80;61.90;;;;;;5072977;28;20073;-67
2021/11/20 10:50:20;;;;;;;77.63;20.42;;;15.80;62.50;;;;;;5052948;28;20101;-67
2021/11/20 10:53:13;;;;;;;79.47;20.67;;;15.80;62.70;;;;;;5070611;28;20085;-65
2021/11/20 10:55:55;;;;;;;87.47;22.15;;;15.80;62.50;;;;;;5071830;28;20069;-64
2021/11/20 10:58:53;;;;;;;70.78;22.58;;;15.80;62.50;;;;;;5055800;28;20106;-66
2021/11/20 11:01:38;;;;;;;74.30;21.70;;;15.80;63.30;;;;;;5072091;28;20486;-66
2021/11/20 11:04:31;;;;;;;75.47;20.10;;;15.80;62.70;;;;;;5052127;28;20527;-67
2021/11/20 11:07:19;;;;;;;83.30;20.50;;;15.70;62.50;;;;;;5052327;28;20101;-66
2021/11/20 11:10:15;;;;;;;70.80;19.00;;;15.70;63.40;;;;;;5052638;28;20077;-68
2021/11/20 11:13:13;;;;;;;91.88;21.05;;;15.70;63.40;;;;;;5047126;28;20085;-66
2021/11/20 11:16:04;;;;;;;81.72;21.05;;;15.60;63.20;;;;;;5004935;28;20089;-67
2021/11/20 11:18:44;;;;;;;77.22;20.90;;;15.60;64.10;;;;;;5052010;28;20155;-66
2021/11/20 11:21:13;;;;;;;66.90;20.75;;;15.60;64.20;;;;;;5070440;28;20503;-67
2021/11/20 11:24:18;;;;;;;98.55;21.20;;;15.70;64.50;;;;;;5053254;28;20099;-65
2021/11/20 11:27:05;;;;;;;87.57;21.30;;;15.70;64.40;;;;;;5051489;28;20073;-67
2021/11/20 11:29:58;;;;;;;72.85;19.75;;;15.70;64.60;;;;;;5053727;28;20561;-65
2021/11/20 11:32:29;;;;;;;81.65;22.05;;;15.60;65.10;;;;;;5052364;28;20097;-68
2021/11/20 11:35:19;;;;;;;82.30;20.73;;;15.60;65.40;;;;;;5054692;28;20109;-67
2021/11/20 11:38:02;;;;;;;78.40;21.67;;;15.60;65.30;;;;;;5056079;28;20073;-66
2021/11/20 11:40:29;;;;;;;81.13;22.23;;;15.50;65.40;;;;;;5035571;28;20419;-64
2021/11/20 11:42:55;;;;;;;82.22;21.85;;;15.50;65.50;;;;;;5053333;28;20081;-65
2021/11/20 11:45:38;;;;;;;84.20;22.23;;;15.40;65.60;;;;;;5053061;28;20159;-64
2021/11/20 11:48:25;;;;;;;85.30;22.90;;;15.40;66.10;;;;;;5053914;28;20436;-65
2021/11/20 11:51:01;;;;;;;81.65;21.83;;;15.40;66.30;;;;;;5072086;28;20088;-65
2021/11/20 11:53:57;;;;;;;82.15;21.63;;;15.40;66.00;;;;;;5069193;28;20151;-64
2021/11/20 11:56:44;;;;;;;75.40;21.85;;;15.40;66.10;;;;;;5053629;28;20070;-66
2021/11/20 11:59:34;;;;;;;77.38;22.10;;;15.40;66.50;;;;;;5069268;28;20484;-66
2021/11/20 12:02:19;;;;;;;79.03;23.45;;;15.40;67.10;;;;;;5051369;28;20081;-65
2021/11/20 12:04:49;;;;;;;73.72;22.98;;;15.40;66.60;;;;;;5069301;28;20154;-66
2021/11/20 12:07:50;;;;;;;86.03;21.83;;;15.40;66.60;;;;;;5052050;28;20073;-66
2021/11/20 12:10:37;;;;;;;82.43;23.77;;;15.40;66.70;;;;;;5028562;28;20080;-64
2021/11/20 12:13:10;;;;;;;87.90;22.70;;;15.40;67.10;;;;;;5070559;28;20065;-67
2021/11/20 12:15:40;;;;;;;79.93;24.00;;;15.40;67.10;;;;;;5054924;28;20493;-67
2021/11/20 12:18:19;;;;;;;70.60;21.35;;;15.30;66.90;;;;;;5072093;28;20088;-67
2021/11/20 12:20:53;;;;;;;92.47;22.63;;;15.30;66.90;;;;;;5051216;28;20164;-67
2021/11/20 12:23:47;;;;;;;80.03;21.85;;;15.30;67.70;;;;;;5051916;28;20080;-65
2021/11/20 12:26:17;;;;;;;78.90;21.83;;;15.30;67.50;;;;;;5051809;28;20551;-67
2021/11/20 12:28:56;;;;;;;74.93;22.23;;;15.30;67.40;;;;;;5051725;28;20069;-66
2021/11/20 12:31:28;;;;;;;67.85;23.35;;;15.20;67.80;;;;;;5053945;28;20069;-65
2021/11/20 12:34:16;;;;;;;74.43;23.65;;;15.10;68.20;;;;;;5052554;28;20113;-66
2021/11/20 12:37:00;;;;;;;84.43;24.38;;;15.20;68.40;;;;;;5051169;28;20164;-67
2021/11/20 12:39:46;;;;;;;75.55;22.67;;;15.10;68.40;;;;;;5071782;28;20072;-66
2021/11/20 12:43:04;;;;;;;82.57;25.42;;;15.10;69.10;;;;;;5073342;28;20180;-63
2021/11/20 12:46:05;;;;;;;82.20;26.23;;;15.10;68.80;;;;;;5041063;28;20073;-66
2021/11/20 12:48:53;;;;;;;97.22;25.92;;;15.10;69.30;;;;;;4987082;28;20169;-68
2021/11/20 12:51:25;;;;;;;82.07;23.90;;;14.90;69.00;;;;;;4986957;28;20133;-66
2021/11/20 12:53:52;;;;;;;87.07;23.85;;;15.00;69.10;;;;;;4969585;28;20581;-66
2021/11/20 12:56:18;;;;;;;81.35;23.55;;;15.00;69.80;;;;;;4985991;28;20074;-66
2021/11/20 12:59:22;;;;;;;79.00;23.75;;;15.00;70.30;;;;;;4984622;28;20102;-68
2021/11/20 13:01:59;;;;;;;66.95;21.60;;;15.00;70.40;;;;;;4983236;28;20123;-66